Time;durP1;ratioP1;P1;durP2;ratioP2;P2;SDS_P1;SDS_P2;PMS_P1;PMS_P2;Temp;Humidity;BMP_temperature;BMP_pressure;BME280_temperature;BME280_humidity;BME280_pressure;Samples;Min_cycle;Max_cycle;Signal;HPM_P1;HPM_P2
2022/01/14 00:02:22;;;;;;;110.23;26.10;;;;;;;0.74;100.00;101220.13;5050318;28;20221;-83
2022/01/14 00:04:52;;;;;;;130.83;28.27;;;;;;;0.62;100.00;101216.53;5048500;28;20201;-84
2022/01/14 00:07:21;;;;;;;149.40;26.47;;;;;;;0.56;100.00;101212.13;5052007;28;20212;-84
2022/01/14 00:09:56;;;;;;;117.00;26.97;;;;;;;0.65;100.00;101211.34;5065388;28;20188;-84
2022/01/14 00:12:29;;;;;;;135.07;25.50;;;;;;;0.56;100.00;101212.13;5069564;27;20637;-84
2022/01/14 00:15:23;;;;;;;158.40;28.20;;;;;;;0.62;100.00;101206.97;5092918;28;20199;-83
2022/01/14 00:17:55;;;;;;;90.20;23.70;;;;;;;0.67;100.00;101207.88;5098142;28;20200;-83
2022/01/14 00:20:24;;;;;;;66.93;22.40;;;;;;;0.66;100.00;101200.91;5098332;28;20439;-84
2022/01/14 00:22:52;;;;;;;62.97;20.63;;;;;;;0.69;100.00;101193.13;5088661;28;20287;-84
2022/01/14 00:33:44;;;;;;;134.03;26.23;;;;;;;0.44;100.00;101185.94;5065472;28;20201;-84
2022/01/14 00:36:13;;;;;;;59.30;21.70;;;;;;;0.65;100.00;101191.34;5057468;28;20236;-83
2022/01/14 00:38:43;;;;;;;128.53;24.73;;;;;;;0.46;100.00;101179.88;5048619;28;20197;-84
2022/01/14 00:41:12;;;;;;;105.83;24.97;;;;;;;0.57;100.00;101183.44;5051238;28;20324;-83
2022/01/14 00:43:43;;;;;;;119.33;24.77;;;;;;;0.64;100.00;101179.16;5051691;28;20217;-83
2022/01/14 00:46:14;;;;;;;106.73;25.00;;;;;;;0.67;100.00;101183.53;5050157;28;20229;-84
2022/01/14 00:48:44;;;;;;;78.47;24.37;;;;;;;0.75;100.00;101182.75;5051515;28;20204;-83
2022/01/14 00:51:12;;;;;;;182.60;29.90;;;;;;;0.53;100.00;101179.06;5045479;28;20254;-84
2022/01/14 00:53:41;;;;;;;206.03;31.10;;;;;;;0.43;100.00;101168.56;5046387;28;20201;-83
2022/01/14 00:56:21;;;;;;;327.63;37.33;;;;;;;-0.02;100.00;101165.47;5052557;28;20201;-83
2022/01/14 01:01:38;;;;;;;93.83;22.03;;;;;;;0.38;100.00;101167.63;5049087;28;20304;-83
2022/01/14 01:04:07;;;;;;;118.17;25.77;;;;;;;0.40;100.00;101172.00;5043554;28;20228;-83
2022/01/14 01:06:36;;;;;;;319.80;38.60;;;;;;;0.18;100.00;101168.28;5050392;28;20637;-84
2022/01/14 01:09:09;;;;;;;266.57;33.87;;;;;;;0.10;100.00;101156.06;5051160;28;20193;-84
2022/01/14 01:11:44;;;;;;;102.03;25.23;;;;;;;0.34;100.00;101160.63;5049658;28;20197;-84
2022/01/14 01:14:17;;;;;;;144.47;26.23;;;;;;;0.38;100.00;101165.00;5047978;28;20204;-83
2022/01/14 01:16:47;;;;;;;77.63;23.43;;;;;;;0.57;100.00;101154.75;5047052;28;20197;-84
2022/01/14 01:19:16;;;;;;;370.90;38.13;;;;;;;0.03;100.00;101151.63;5046312;28;20193;-84
2022/01/14 01:21:45;;;;;;;135.87;23.67;;;;;;;0.05;100.00;101148.19;5047024;28;20197;-84
2022/01/14 01:24:15;;;;;;;343.90;36.80;;;;;;;0.04;100.00;101155.97;5043552;28;20454;-84
2022/01/14 01:26:45;;;;;;;242.53;31.23;;;;;;;-0.06;100.00;101155.88;5050109;28;20201;-84
2022/01/14 01:29:43;;;;;;;86.23;23.13;;;;;;;0.05;100.00;101153.41;5051218;28;20193;-84
2022/01/14 01:32:13;;;;;;;281.60;33.93;;;;;;;0.11;100.00;101152.59;5049742;28;20193;-84
2022/01/14 01:34:43;;;;;;;258.73;31.27;;;;;;;0.01;100.00;101166.38;5050917;28;20204;-83
2022/01/14 01:37:12;;;;;;;97.57;24.83;;;;;;;-0.10;100.00;101158.41;5063421;27;20217;-84
2022/01/14 01:39:42;;;;;;;207.60;32.20;;;;;;;-0.11;100.00;101160.16;5044872;28;20289;-84
2022/01/14 01:42:11;;;;;;;216.67;29.40;;;;;;;-0.05;100.00;101157.63;5051472;28;20189;-84
2022/01/14 01:44:44;;;;;;;181.67;28.17;;;;;;;0.00;100.00;101160.31;5052285;28;20203;-83
2022/01/14 01:47:14;;;;;;;103.53;23.83;;;;;;;0.23;100.00;101158.81;5045000;28;20193;-85
2022/01/14 01:49:43;;;;;;;329.60;35.93;;;;;;;0.22;100.00;101148.38;5048310;28;20200;-84
2022/01/14 01:52:12;;;;;;;86.23;23.30;;;;;;;0.35;100.00;101141.53;5053363;28;20201;-84
2022/01/14 01:54:40;;;;;;;72.30;21.73;;;;;;;0.45;100.00;101145.97;5048220;28;20189;-84
2022/01/14 01:57:09;;;;;;;168.70;27.07;;;;;;;0.42;100.00;101144.22;5046461;28;20208;-84
2022/01/14 01:59:37;;;;;;;161.73;28.93;;;;;;;0.38;100.00;101145.03;5062210;27;20199;-84
2022/01/14 02:02:06;;;;;;;251.70;31.03;;;;;;;0.13;100.00;101133.50;5043891;28;20257;-84
2022/01/14 02:04:36;;;;;;;146.77;26.10;;;;;;;0.22;100.00;101133.59;5063816;27;20273;-84
2022/01/14 02:07:04;;;;;;;107.67;24.80;;;;;;;0.37;100.00;101126.78;5046412;28;20261;-84
2022/01/14 02:09:33;;;;;;;114.40;22.67;;;;;;;0.35;100.00;101118.06;5044862;28;20193;-84
2022/01/14 02:12:08;;;;;;;75.53;21.87;;;;;;;0.45;100.00;101133.81;5050377;28;20196;-84
2022/01/14 02:14:54;;;;;;;78.40;22.20;;;;;;;0.50;100.00;101128.66;5050342;28;20208;-84
2022/01/14 02:17:34;;;;;;;102.63;23.87;;;;;;;0.43;100.00;101132.06;5046457;28;20234;-84
2022/01/14 02:22:56;;;;;;;227.30;31.43;;;;;;;0.30;100.00;101125.88;5049875;28;20213;-84
2022/01/14 02:25:29;;;;;;;51.37;20.23;;;;;;;0.13;100.00;101122.22;5049942;28;20660;-84
2022/01/14 02:28:01;;;;;;;98.93;23.40;;;;;;;0.27;100.00;101118.88;5050185;28;20199;-84
2022/01/14 02:30:31;;;;;;;122.67;23.87;;;;;;;0.16;100.00;101122.25;5049234;28;20190;-83
2022/01/14 02:33:00;;;;;;;179.57;27.23;;;;;;;0.01;100.00;101125.56;5056162;27;20204;-84
2022/01/14 02:35:30;;;;;;;201.90;27.63;;;;;;;-0.10;100.00;101117.63;5049007;28;20242;-84
2022/01/14 02:37:59;;;;;;;194.63;28.70;;;;;;;-0.26;100.00;101114.84;5043473;28;20235;-84
2022/01/14 02:40:28;;;;;;;179.73;28.43;;;;;;;-0.19;100.00;101124.47;5046775;28;20285;-84
2022/01/14 02:42:59;;;;;;;130.20;26.43;;;;;;;0.01;100.00;101125.56;5046271;28;20190;-84
2022/01/14 02:45:31;;;;;;;81.37;22.43;;;;;;;0.24;100.00;101131.88;5046846;28;20222;-84
2022/01/14 02:48:00;;;;;;;276.83;36.47;;;;;;;0.03;100.00;101129.06;5043552;28;20204;-84
2022/01/14 02:50:38;;;;;;;184.20;27.83;;;;;;;-0.14;100.00;101130.59;5057402;27;20223;-85
2022/01/14 02:53:24;;;;;;;317.53;37.37;;;;;;;-0.25;100.00;101116.59;5072607;27;20256;-84
2022/01/14 02:55:56;;;;;;;87.03;21.57;;;;;;;-0.04;100.00;101115.09;5049774;28;20189;-83
2022/01/14 02:58:26;;;;;;;132.43;24.67;;;;;;;0.14;100.00;101114.41;5047221;28;20205;-83
2022/01/14 03:00:55;;;;;;;56.93;20.53;;;;;;;0.28;100.00;101114.53;5047135;28;20276;-84
2022/01/14 03:03:24;;;;;;;70.93;21.10;;;;;;;0.27;100.00;101111.06;5052828;28;20277;-84
2022/01/14 03:05:55;;;;;;;54.20;21.30;;;;;;;0.23;100.00;101105.81;5048692;28;20312;-84
2022/01/14 03:08:24;;;;;;;57.93;19.63;;;;;;;0.36;100.00;101110.25;5049792;28;20200;-84
2022/01/14 03:10:56;;;;;;;67.07;18.97;;;;;;;0.35;100.00;101108.53;5047078;28;20280;-83
2022/01/14 03:13:24;;;;;;;92.63;21.57;;;;;;;0.26;100.00;101114.53;5048688;28;20212;-84
2022/01/14 03:15:53;;;;;;;100.73;23.73;;;;;;;0.25;100.00;101114.50;5049641;28;20204;-83
2022/01/14 03:18:31;;;;;;;212.57;28.13;;;;;;;-0.04;100.00;101103.81;5046623;28;20197;-84
2022/01/14 03:21:09;;;;;;;160.50;26.43;;;;;;;0.03;100.00;101102.16;5053064;28;20195;-84
2022/01/14 03:23:44;;;;;;;86.40;21.67;;;;;;;0.23;100.00;101100.59;5057242;28;20243;-83
2022/01/14 03:26:13;;;;;;;57.90;20.53;;;;;;;0.38;100.00;101097.25;5049798;28;20189;-84
2022/01/14 03:28:42;;;;;;;96.37;21.83;;;;;;;0.31;100.00;101090.25;5045764;28;20185;-84
2022/01/14 03:31:11;;;;;;;106.33;21.97;;;;;;;0.24;100.00;101081.50;5047922;28;20250;-84
2022/01/14 03:33:40;;;;;;;59.17;18.63;;;;;;;0.35;100.00;101064.22;5049065;28;20193;-85
2022/01/14 03:36:11;;;;;;;264.93;30.63;;;;;;;-0.19;100.00;101062.88;5064921;27;20201;-84
2022/01/14 03:38:40;;;;;;;93.87;20.77;;;;;;;0.12;100.00;101068.38;5047287;28;20820;-84
2022/01/14 03:41:08;;;;;;;159.37;25.63;;;;;;;-0.14;100.00;101060.28;5046520;28;20193;-84
2022/01/14 03:43:38;;;;;;;95.33;21.70;;;;;;;-0.04;100.00;101060.41;5043265;28;20217;-84
2022/01/14 03:46:07;;;;;;;178.00;26.17;;;;;;;0.02;100.00;101061.31;5051639;28;20197;-84
2022/01/14 03:48:35;;;;;;;119.70;23.27;;;;;;;0.08;100.00;101061.38;5065569;27;20196;-84
2022/01/14 03:51:04;;;;;;;200.53;28.03;;;;;;;-0.14;100.00;101053.34;4989063;28;20232;-83
2022/01/14 03:53:34;;;;;;;91.97;20.77;;;;;;;0.00;100.00;101058.72;4959449;28;20206;-84
2022/01/14 03:56:02;;;;;;;417.77;39.47;;;;;;;-0.24;100.00;101056.72;4993476;28;20673;-84
2022/01/14 03:58:40;;;;;;;68.50;19.07;;;;;;;0.00;100.00;101061.31;4989982;28;20194;-84
2022/01/14 04:01:08;;;;;;;222.23;27.70;;;;;;;-0.10;100.00;101056.84;4989069;28;20226;-84
2022/01/14 04:03:37;;;;;;;146.07;22.20;;;;;;;0.02;100.00;101054.38;4991107;28;20224;-84
2022/01/14 04:06:06;;;;;;;80.20;20.10;;;;;;;0.03;100.00;101050.91;4990309;28;20221;-84
2022/01/14 04:08:36;;;;;;;136.77;22.77;;;;;;;-0.03;100.00;101048.25;4998055;28;20191;-84
2022/01/14 04:11:05;;;;;;;130.13;23.63;;;;;;;-0.09;100.00;101046.47;5001073;28;20199;-84
2022/01/14 04:13:44;;;;;;;60.03;19.13;;;;;;;0.05;100.00;101050.94;4991487;28;20195;-85
2022/01/14 04:16:12;;;;;;;161.50;24.17;;;;;;;0.04;100.00;101052.66;5045044;28;20189;-84
2022/01/14 04:18:41;;;;;;;92.40;19.90;;;;;;;0.17;100.00;101045.81;5047035;28;20208;-84
2022/01/14 04:21:10;;;;;;;49.27;17.93;;;;;;;0.19;100.00;101055.41;5051084;28;20204;-85
2022/01/14 04:23:42;;;;;;;60.80;19.17;;;;;;;0.31;100.00;101049.44;5052232;28;20231;-85
2022/01/14 04:26:10;;;;;;;69.43;19.00;;;;;;;0.35;100.00;101050.31;5066596;27;20193;-84
2022/01/14 04:28:39;;;;;;;124.77;23.97;;;;;;;0.40;100.00;101051.25;5047527;28;20636;-85
2022/01/14 04:31:09;;;;;;;57.27;18.13;;;;;;;0.38;100.00;101045.13;5052485;28;20284;-84
2022/01/14 04:33:38;;;;;;;163.73;25.17;;;;;;;0.36;100.00;101047.72;5034350;28;20262;-84
2022/01/14 04:36:09;;;;;;;58.90;17.57;;;;;;;0.52;100.00;101048.72;5101499;28;20180;-84
2022/01/14 04:38:39;;;;;;;48.53;18.70;;;;;;;0.39;100.00;101042.56;5113644;28;20242;-82
2022/01/14 04:41:09;;;;;;;60.77;18.43;;;;;;;0.49;100.00;101052.19;5117997;28;20180;-81
2022/01/14 04:43:38;;;;;;;93.73;22.10;;;;;;;0.49;100.00;101048.69;5110937;28;20225;-81
2022/01/14 04:46:46;;;;;;;64.37;19.30;;;;;;;0.41;100.00;101053.84;5114949;28;20230;-80
2022/01/14 04:49:14;;;;;;;127.93;20.87;;;;;;;0.23;100.00;101044.16;5095829;28;20196;-84
2022/01/14 04:51:43;;;;;;;107.20;22.27;;;;;;;0.25;100.00;101041.53;5087290;28;20191;-84
2022/01/14 04:54:13;;;;;;;72.47;19.60;;;;;;;0.14;100.00;101035.38;5071118;28;20201;-84
2022/01/14 04:56:41;;;;;;;45.47;18.70;;;;;;;0.29;100.00;101025.09;5048782;28;20285;-85
2022/01/14 04:59:09;;;;;;;98.00;22.07;;;;;;;0.27;100.00;101032.88;5007229;28;20263;-85
2022/01/14 05:01:37;;;;;;;169.63;24.97;;;;;;;0.29;100.00;101030.31;5002971;28;20206;-84
2022/01/14 05:04:06;;;;;;;99.63;20.83;;;;;;;0.30;100.00;101028.56;5002568;28;20206;-84
2022/01/14 05:06:40;;;;;;;85.47;19.30;;;;;;;0.39;100.00;101028.66;5004404;28;20210;-84
2022/01/14 05:09:18;;;;;;;142.13;19.93;;;;;;;0.22;100.00;101021.56;4976449;28;20252;-85
2022/01/14 05:11:54;;;;;;;211.40;25.20;;;;;;;0.10;100.00;101021.47;5008309;28;20215;-84
2022/01/14 05:14:22;;;;;;;73.80;19.67;;;;;;;0.20;100.00;101014.59;5003801;28;20214;-85
2022/01/14 05:16:50;;;;;;;56.03;18.33;;;;;;;0.26;100.00;101015.50;5002756;28;20657;-83
2022/01/14 05:19:19;;;;;;;39.57;17.53;;;;;;;0.36;100.00;101016.44;5006584;28;20235;-85
2022/01/14 05:21:47;;;;;;;46.27;17.20;;;;;;;0.32;100.00;101011.22;5009322;28;20194;-84
2022/01/14 05:24:16;;;;;;;86.70;18.37;;;;;;;0.31;100.00;101015.56;5040077;28;20258;-84
2022/01/14 05:26:44;;;;;;;97.30;18.80;;;;;;;0.27;100.00;101014.63;5050677;28;20205;-84
2022/01/14 05:29:14;;;;;;;60.70;18.20;;;;;;;0.17;100.00;101011.94;5060780;27;20346;-84
2022/01/14 05:31:47;;;;;;;175.93;24.73;;;;;;;-0.05;100.00;101008.28;5057072;27;20201;-85
2022/01/14 05:34:15;;;;;;;69.93;17.97;;;;;;;0.18;100.00;101013.69;5051802;28;20212;-85
2022/01/14 05:36:44;;;;;;;103.17;21.77;;;;;;;0.13;100.00;101011.06;5053822;27;20201;-84
2022/01/14 05:39:15;;;;;;;62.87;18.73;;;;;;;0.34;100.00;101004.28;5064989;27;20197;-84
2022/01/14 05:41:43;;;;;;;67.37;17.20;;;;;;;0.43;100.00;101001.72;5047688;28;20197;-85
2022/01/14 05:44:12;;;;;;;197.43;26.33;;;;;;;-0.20;100.00;101008.13;5050628;28;20296;-84
2022/01/14 05:46:41;;;;;;;83.70;19.17;;;;;;;-0.09;100.00;101006.53;5052073;28;20228;-84
2022/01/14 05:49:10;;;;;;;87.10;19.17;;;;;;;-0.03;100.00;101011.78;5047843;28;20282;-85
2022/01/14 05:51:39;;;;;;;106.80;18.87;;;;;;;0.16;100.00;101007.59;5047917;28;20205;-84
2022/01/14 05:54:07;;;;;;;149.10;21.07;;;;;;;0.03;100.00;101009.25;5047726;28;20205;-84
2022/01/14 05:56:36;;;;;;;105.40;20.30;;;;;;;0.03;100.00;101003.16;5050408;28;20205;-85
2022/01/14 05:59:05;;;;;;;148.37;24.50;;;;;;;-0.01;100.00;101000.50;5115956;27;20207;-84
2022/01/14 06:01:33;;;;;;;121.80;22.03;;;;;;;-0.05;100.00;101008.28;5043919;28;20193;-85
2022/01/14 06:04:04;;;;;;;126.63;23.10;;;;;;;-0.07;100.00;101017.84;5050105;28;20257;-84
2022/01/14 06:06:34;;;;;;;151.27;22.50;;;;;;;-0.03;100.00;101012.66;5049143;28;20213;-84
2022/01/14 06:09:03;;;;;;;187.67;24.67;;;;;;;-0.27;100.00;101017.66;5049967;28;20208;-84
2022/01/14 06:11:32;;;;;;;136.73;23.90;;;;;;;-0.23;100.00;101021.13;5050207;28;20208;-85
2022/01/14 06:14:01;;;;;;;140.33;22.30;;;;;;;-0.09;100.00;101016.94;5050255;28;20274;-85
2022/01/14 06:16:29;;;;;;;124.57;20.20;;;;;;;-0.12;100.00;101020.38;5050076;28;20228;-85
2022/01/14 06:18:57;;;;;;;211.00;26.37;;;;;;;-0.23;100.00;101011.59;5052280;28;20227;-84
2022/01/14 06:21:27;;;;;;;84.83;18.07;;;;;;;0.02;100.00;101011.84;5047009;28;20640;-84
2022/01/14 06:23:55;;;;;;;148.23;23.97;;;;;;;-0.36;100.00;101009.75;5047346;28;20199;-84
2022/01/14 06:26:24;;;;;;;121.17;19.80;;;;;;;-0.42;100.00;101007.94;5066685;27;20247;-85
2022/01/14 06:28:53;;;;;;;180.93;25.07;;;;;;;-0.48;100.00;101018.31;5046217;28;20197;-85
2022/01/14 06:31:21;;;;;;;101.20;18.53;;;;;;;-0.36;100.00;101015.81;5050700;28;20206;-85
2022/01/14 06:33:50;;;;;;;223.63;26.70;;;;;;;-0.58;100.00;101029.44;5050164;28;20203;-85
2022/01/14 06:36:18;;;;;;;197.10;28.00;;;;;;;-0.37;100.00;101021.00;5046295;28;20193;-85
2022/01/14 06:38:48;;;;;;;73.20;18.87;;;;;;;-0.16;100.00;101020.34;5048196;28;20229;-84
2022/01/14 06:41:19;;;;;;;106.37;22.33;;;;;;;-0.11;100.00;101018.66;5049423;28;20197;-84
2022/01/14 06:43:47;;;;;;;52.20;18.13;;;;;;;0.03;100.00;101022.25;5028382;28;20303;-85
2022/01/14 06:46:17;;;;;;;59.10;18.07;;;;;;;0.04;100.00;101015.31;5044876;28;20209;-84
2022/01/14 06:48:45;;;;;;;174.03;23.37;;;;;;;0.07;100.00;101012.72;5052246;28;20197;-84
2022/01/14 06:51:15;;;;;;;167.43;23.10;;;;;;;-0.02;100.00;101016.13;5048680;28;20189;-85
2022/01/14 06:53:47;;;;;;;249.93;27.97;;;;;;;-0.51;100.00;101015.63;5049548;28;20200;-85
2022/01/14 06:56:16;;;;;;;248.53;26.97;;;;;;;-0.53;100.00;101016.50;5045899;28;20208;-85
2022/01/14 06:58:45;;;;;;;64.40;16.40;;;;;;;-0.18;100.00;101012.53;5045000;28;20197;-84
2022/01/14 07:01:13;;;;;;;181.60;24.47;;;;;;;-0.31;100.00;101010.63;5049636;28;20208;-84
2022/01/14 07:03:43;;;;;;;122.27;21.73;;;;;;;-0.05;100.00;101003.97;5124911;27;20221;-84
2022/01/14 07:06:11;;;;;;;49.57;17.47;;;;;;;-0.20;100.00;101003.81;5122391;27;20286;-84
2022/01/14 07:08:39;;;;;;;148.07;20.33;;;;;;;-0.10;100.00;101002.16;5126546;27;20197;-85
2022/01/14 07:11:11;;;;;;;101.20;19.90;;;;;;;0.06;100.00;100998.84;5129227;28;20197;-83
2022/01/14 07:13:42;;;;;;;132.03;21.63;;;;;;;-0.27;100.00;101001.16;5125168;27;20194;-85
2022/01/14 07:16:11;;;;;;;62.03;16.67;;;;;;;-0.04;100.00;100999.63;5124640;27;20195;-85
2022/01/14 07:18:41;;;;;;;42.47;17.10;;;;;;;0.05;100.00;100996.22;5119811;27;20288;-85
2022/01/14 07:21:09;;;;;;;78.13;18.23;;;;;;;0.06;100.00;100998.84;5117907;27;20201;-84
2022/01/14 07:23:37;;;;;;;54.03;17.57;;;;;;;0.13;100.00;101003.25;5063995;27;20200;-85
2022/01/14 07:26:06;;;;;;;87.67;18.40;;;;;;;0.12;100.00;101011.91;5046367;28;20222;-85
2022/01/14 07:28:36;;;;;;;153.93;23.40;;;;;;;-0.21;100.00;101001.19;5049379;28;20201;-84
2022/01/14 07:31:04;;;;;;;183.17;24.57;;;;;;;-0.28;100.00;101007.22;5052095;28;20209;-84
2022/01/14 07:33:34;;;;;;;81.83;18.63;;;;;;;-0.09;100.00;101006.53;5055682;28;20233;-85
2022/01/14 07:36:02;;;;;;;275.07;29.47;;;;;;;-0.36;100.00;101012.34;5051957;28;20204;-84
2022/01/14 07:38:30;;;;;;;107.63;19.27;;;;;;;-0.14;100.00;101018.63;5052707;28;20232;-85
2022/01/14 07:40:58;;;;;;;86.93;16.47;;;;;;;-0.15;100.00;101017.75;5028528;28;20210;-85
2022/01/14 07:43:27;;;;;;;106.97;19.20;;;;;;;-0.15;100.00;101017.75;5028276;28;20186;-84
2022/01/14 07:45:58;;;;;;;51.87;16.37;;;;;;;-0.11;100.00;101021.25;5025546;28;20226;-85
2022/01/14 07:48:27;;;;;;;93.40;18.97;;;;;;;0.03;100.00;101013.56;5039330;28;20201;-85
2022/01/14 07:50:56;;;;;;;112.43;19.87;;;;;;;-0.05;100.00;101009.16;5024435;28;20197;-85
2022/01/14 07:53:25;;;;;;;152.33;20.60;;;;;;;-0.08;100.00;101010.88;5037253;27;20197;-85
2022/01/14 07:55:53;;;;;;;127.37;21.60;;;;;;;-0.19;100.00;101004.69;5030634;28;20593;-85
2022/01/14 07:58:22;;;;;;;109.97;19.30;;;;;;;-0.13;100.00;100997.81;5026563;28;20316;-85
2022/01/14 08:00:52;;;;;;;59.60;16.47;;;;;;;-0.04;100.00;101000.50;5028435;28;20190;-84
2022/01/14 08:03:22;;;;;;;111.23;20.27;;;;;;;-0.07;100.00;101003.06;5026400;28;20282;-85
2022/01/14 08:05:53;;;;;;;110.23;18.40;;;;;;;-0.04;100.00;101004.81;5042159;28;20198;-84
2022/01/14 08:08:22;;;;;;;137.33;20.40;;;;;;;-0.03;100.00;101011.78;5048498;28;20201;-85
2022/01/14 08:10:50;;;;;;;97.20;17.07;;;;;;;0.04;100.00;101020.53;5050395;28;20203;-84
2022/01/14 08:13:21;;;;;;;61.63;16.70;;;;;;;0.06;100.00;101021.41;5055393;27;20196;-85
2022/01/14 08:15:51;;;;;;;123.33;20.57;;;;;;;-0.23;100.00;101023.75;5054255;28;20217;-85
2022/01/14 08:18:19;;;;;;;65.73;17.67;;;;;;;0.04;100.00;101020.53;5050089;28;20205;-84
2022/01/14 08:20:56;;;;;;;179.20;25.73;;;;;;;-0.33;100.00;101027.97;5048009;28;20258;-84
2022/01/14 08:23:26;;;;;;;157.70;20.63;;;;;;;-0.41;100.00;101027.03;5050762;28;20200;-84
2022/01/14 08:25:57;;;;;;;119.40;19.47;;;;;;;-0.34;100.00;101016.69;5051285;28;20197;-87
2022/01/14 08:28:29;;;;;;;75.33;17.37;;;;;;;-0.25;100.00;101020.25;5058168;27;20185;-87
2022/01/14 08:30:58;;;;;;;127.73;17.87;;;;;;;-0.27;100.00;101022.84;5050742;28;20224;-87
2022/01/14 08:33:27;;;;;;;83.30;17.00;;;;;;;-0.07;100.00;101015.22;5049102;28;20189;-87
2022/01/14 08:35:57;;;;;;;88.77;18.23;;;;;;;-0.17;100.00;101006.47;5053037;28;20198;-87
2022/01/14 08:38:25;;;;;;;78.67;18.57;;;;;;;-0.03;100.00;101012.66;5051802;28;20266;-87
2022/01/14 08:40:54;;;;;;;132.37;19.63;;;;;;;-0.21;100.00;101016.81;5050446;28;20198;-88
2022/01/14 08:43:24;;;;;;;67.00;17.27;;;;;;;-0.25;100.00;101004.63;5052199;28;20714;-87
2022/01/14 08:45:52;;;;;;;63.23;16.97;;;;;;;0.01;100.00;100999.69;5051839;28;20200;-86
2022/01/14 08:48:21;;;;;;;63.90;17.03;;;;;;;0.01;100.00;100991.88;5053549;28;20297;-87
2022/01/14 08:50:52;;;;;;;70.67;16.30;;;;;;;0.09;100.00;100992.78;5051051;28;20189;-86
2022/01/14 08:53:21;;;;;;;56.30;16.97;;;;;;;0.24;100.00;100990.28;5051515;28;20205;-87
2022/01/14 08:55:50;;;;;;;85.17;17.67;;;;;;;0.09;100.00;100998.84;5048760;28;20284;-88
2022/01/14 08:58:18;;;;;;;56.60;15.93;;;;;;;0.18;100.00;101003.25;5047497;28;20197;-86
2022/01/14 09:00:49;;;;;;;76.53;18.77;;;;;;;0.28;100.00;100995.53;5058043;27;20212;-88
2022/01/14 09:03:18;;;;;;;62.23;17.27;;;;;;;0.37;100.00;100997.34;5060566;27;20197;-88
2022/01/14 09:05:46;;;;;;;107.07;35.30;;;;;;;0.27;100.00;100996.38;5052274;28;20228;-86
2022/01/14 09:08:14;;;;;;;135.10;28.83;;;;;;;0.29;100.00;101006.84;5051378;28;20221;-88
2022/01/14 09:10:44;;;;;;;91.27;18.03;;;;;;;0.12;100.00;101016.25;5054949;28;20222;-87
2022/01/14 09:13:13;;;;;;;108.93;38.03;;;;;;;0.30;100.00;101018.16;5053089;28;20194;-88
2022/01/14 09:15:41;;;;;;;151.87;38.33;;;;;;;0.24;100.00;101017.22;5052147;28;20196;-88
2022/01/14 09:18:10;;;;;;;103.40;21.70;;;;;;;0.27;100.00;101018.97;5047738;28;20197;-87
2022/01/14 09:20:38;;;;;;;48.50;17.37;;;;;;;0.49;100.00;101020.91;5050373;28;20216;-87
2022/01/14 09:23:12;;;;;;;112.43;30.03;;;;;;;0.35;100.00;101022.53;5054973;28;20215;-86
2022/01/14 09:25:41;;;;;;;110.40;34.20;;;;;;;0.42;100.00;101024.31;5050763;28;20195;-87
2022/01/14 09:28:13;;;;;;;82.03;22.57;;;;;;;0.46;100.00;101030.41;5052396;28;20221;-86
2022/01/14 09:30:42;;;;;;;168.80;27.00;;;;;;;0.10;100.00;101028.41;5048013;28;20201;-86
2022/01/14 09:33:16;;;;;;;81.60;21.63;;;;;;;0.25;100.00;101024.19;5058839;27;20254;-84
2022/01/14 09:35:45;;;;;;;163.20;25.03;;;;;;;0.25;100.00;101020.69;5048256;28;20189;-84
2022/01/14 09:38:15;;;;;;;92.37;18.17;;;;;;;0.31;100.00;101027.72;5055142;27;20221;-83
2022/01/14 09:40:44;;;;;;;111.23;20.47;;;;;;;0.24;100.00;101037.19;5055605;27;20197;-83
2022/01/14 09:43:16;;;;;;;117.07;20.07;;;;;;;0.23;100.00;101038.06;5045848;28;20205;-84
2022/01/14 09:46:02;;;;;;;109.33;20.50;;;;;;;0.29;100.00;101038.13;5051115;28;20189;-84
2022/01/14 09:48:30;;;;;;;67.13;18.37;;;;;;;0.50;100.00;101034.81;5048224;28;20217;-83
2022/01/14 09:51:00;;;;;;;76.90;18.87;;;;;;;0.59;100.00;101044.44;5046175;28;20709;-83
2022/01/14 09:53:30;;;;;;;57.67;17.33;;;;;;;0.54;100.00;101037.44;5050778;28;20205;-83
2022/01/14 09:55:59;;;;;;;61.53;19.97;;;;;;;0.55;100.00;101040.91;5054413;28;20204;-83
2022/01/14 09:58:34;;;;;;;91.37;19.83;;;;;;;0.39;100.00;101041.69;5048947;28;20652;-84
2022/01/14 10:01:11;;;;;;;70.80;18.37;;;;;;;0.51;100.00;101037.41;5048615;28;20200;-83
2022/01/14 10:03:50;;;;;;;102.13;20.03;;;;;;;0.34;100.00;101030.31;5053837;28;20265;-84
2022/01/14 10:06:39;;;;;;;141.80;21.93;;;;;;;0.28;100.00;101032.00;5047311;28;20205;-83
2022/01/14 10:09:10;;;;;;;51.50;18.03;;;;;;;0.47;100.00;101027.81;5048982;28;20213;-83
2022/01/14 10:11:42;;;;;;;82.80;17.77;;;;;;;0.46;100.00;101022.59;5050172;28;20632;-83
2022/01/14 10:14:15;;;;;;;98.10;20.97;;;;;;;0.37;100.00;101026.00;5048152;28;20197;-83
2022/01/14 10:16:44;;;;;;;87.33;17.90;;;;;;;0.43;100.00;101020.84;5039812;28;20201;-82
2022/01/14 10:19:23;;;;;;;65.67;18.77;;;;;;;0.52;100.00;101025.25;5052743;28;20205;-84
2022/01/14 10:21:52;;;;;;;92.60;18.80;;;;;;;0.52;100.00;101014.81;5049181;28;20208;-83
2022/01/14 10:24:22;;;;;;;74.77;19.30;;;;;;;0.67;100.00;101020.13;5050261;28;20228;-83
2022/01/14 10:26:53;;;;;;;86.40;18.83;;;;;;;0.68;100.00;101031.47;5056445;27;20253;-84
2022/01/14 10:29:32;;;;;;;59.53;18.60;;;;;;;0.64;100.00;101030.53;5050450;28;20217;-84
2022/01/14 10:32:03;;;;;;;72.10;17.80;;;;;;;0.65;100.00;101032.28;5048085;28;20246;-84
2022/01/14 10:34:31;;;;;;;50.93;17.50;;;;;;;0.70;100.00;101029.72;5046916;28;20238;-84
2022/01/14 10:37:12;;;;;;;57.00;16.63;;;;;;;0.80;100.00;101019.34;4986224;28;20235;-83
2022/01/14 10:39:49;;;;;;;68.57;17.43;;;;;;;0.70;100.00;101011.47;4984497;28;20203;-83
2022/01/14 10:42:29;;;;;;;77.27;16.90;;;;;;;0.56;100.00;101011.38;4984056;28;20187;-83
2022/01/14 10:45:22;;;;;;;67.93;17.43;;;;;;;0.55;100.00;100996.59;4986621;28;20199;-83
2022/01/14 10:47:55;;;;;;;144.07;23.37;;;;;;;0.40;100.00;100980.88;4988839;28;20314;-83
2022/01/14 10:50:28;;;;;;;49.17;18.03;;;;;;;0.66;100.00;100986.22;4987484;28;20282;-83
2022/01/14 10:52:57;;;;;;;118.10;21.07;;;;;;;0.62;100.00;100977.53;4988816;28;20195;-83
2022/01/14 10:55:33;;;;;;;48.20;19.67;;;;;;;0.88;100.00;100982.88;5027825;28;20356;-83
2022/01/14 10:58:03;;;;;;;59.53;21.53;;;;;;;0.86;100.00;100974.16;5053009;28;20200;-84
2022/01/14 11:00:50;;;;;;;61.70;18.50;;;;;;;0.89;100.00;100970.72;5053314;28;20208;-84
2022/01/14 11:03:34;;;;;;;70.43;18.13;;;;;;;0.79;100.00;100975.00;5051322;28;20201;-83
2022/01/14 11:06:17;;;;;;;85.20;18.83;;;;;;;0.90;100.00;100964.63;5056917;27;20197;-83
2022/01/14 11:08:47;;;;;;;62.53;19.63;;;;;;;0.86;100.00;100963.72;5053434;28;20240;-84
2022/01/14 11:11:16;;;;;;;46.80;23.40;;;;;;;1.00;100.00;100955.97;5048085;28;20188;-83
2022/01/14 11:13:45;;;;;;;72.27;17.70;;;;;;;0.88;100.00;100959.41;5061125;27;20222;-84
2022/01/14 11:16:15;;;;;;;77.30;18.47;;;;;;;0.85;100.00;100967.19;5051281;28;20201;-83
2022/01/14 11:18:46;;;;;;;95.73;20.07;;;;;;;0.77;100.00;100964.56;5052821;28;20288;-83
2022/01/14 11:24:03;;;;;;;46.23;20.10;;;;;;;1.08;100.00;100970.78;5051653;28;20209;-83
2022/01/14 11:26:39;;;;;;;123.47;21.10;;;;;;;0.83;100.00;100967.19;5048644;28;20189;-83
2022/01/14 11:29:12;;;;;;;45.43;17.90;;;;;;;1.00;100.00;100962.06;5049115;28;20216;-82
2022/01/14 11:31:43;;;;;;;36.53;16.70;;;;;;;0.76;100.00;100954.97;5052779;28;20200;-83
2022/01/14 11:34:32;;;;;;;61.87;18.40;;;;;;;0.83;100.00;100959.38;5053934;28;20193;-83
2022/01/14 11:37:03;;;;;;;43.23;16.40;;;;;;;0.97;100.00;100953.34;5052670;28;20221;-83